< < Back
Terminal Aerodrome Forecast


Current Version              Previous Versions:   1  2  3  4  5  6  7  8  9  

Terminal Aerodrome Forecast

477
FTUS42 KMLB 161100
TAFDAB
TAF
KDAB 161130Z 1612/1712 32010KT P6SM BKN020 BKN250
     FM161400 02017G26KT P6SM OVC030
     FM170100 04013KT P6SM VCSH BKN020=



Latest METAR

594
SAUS80 KWBC 161300 RRA
MTRDAB
METAR KDAB 161253Z 31006KT 10SM SCT028 BKN250 11/07 A3012 RMK AO2 SLP198
T01060067


USA.gov is the U.S. government's official web portal to all federal, state and local government web resources and services.